Time;durP1;ratioP1;P1;durP2;ratioP2;P2;SDS_P1;SDS_P2;PMS_P1;PMS_P2;Temp;Humidity;BMP_temperature;BMP_pressure;BME280_temperature;BME280_humidity;BME280_pressure;Samples;Min_cycle;Max_cycle;Signal;HPM_P1;HPM_P2
2021/09/15 00:00:14;;;;;;;19.10;11.40;;;;;;;15.06;97.46;95455.50;4973701;28;20569;-78
2021/09/15 00:03:00;;;;;;;19.40;11.32;;;;;;;15.21;96.81;95450.94;4968974;28;20055;-79
2021/09/15 00:05:26;;;;;;;20.13;11.73;;;;;;;15.18;96.97;95454.19;4986295;28;20566;-79
2021/09/15 00:07:51;;;;;;;18.70;10.77;;;;;;;15.19;96.45;95450.47;4979831;28;20045;-79
2021/09/15 00:10:17;;;;;;;16.98;11.13;;;;;;;15.18;96.88;95443.59;4971278;28;20524;-79
2021/09/15 00:12:42;;;;;;;17.75;10.63;;;;;;;15.33;96.28;95448.53;4974037;28;20047;-79
2021/09/15 00:15:09;;;;;;;22.52;10.98;;;;;;;15.35;95.62;95441.06;4973927;28;20051;-79
2021/09/15 00:17:35;;;;;;;18.80;10.40;;;;;;;15.27;95.93;95433.03;4974263;28;20038;-79
2021/09/15 00:20:00;;;;;;;20.10;11.00;;;;;;;15.20;96.19;95433.44;4971285;28;20035;-79
2021/09/15 00:22:26;;;;;;;16.40;10.93;;;;;;;15.11;97.32;95435.25;4970892;28;20046;-79
2021/09/15 00:24:51;;;;;;;17.67;10.57;;;;;;;15.18;96.91;95432.97;4971510;28;20058;-80
2021/09/15 00:27:17;;;;;;;19.15;10.88;;;;;;;15.11;97.67;95429.97;4973223;28;20051;-79
2021/09/15 00:29:42;;;;;;;16.80;10.45;;;;;;;15.09;97.39;95421.53;4971950;28;20050;-79
2021/09/15 00:32:08;;;;;;;16.50;10.82;;;;;;;15.02;97.37;95422.72;4971466;28;20047;-79
2021/09/15 00:34:33;;;;;;;15.77;10.20;;;;;;;15.14;96.50;95424.06;4973564;28;20043;-79
2021/09/15 00:36:59;;;;;;;20.13;10.63;;;;;;;14.98;97.03;95416.44;4973530;28;20051;-79
2021/09/15 00:39:25;;;;;;;16.73;10.73;;;;;;;14.94;97.55;95420.81;4972934;28;20479;-79
2021/09/15 00:41:51;;;;;;;17.15;10.23;;;;;;;15.05;96.83;95416.81;4970760;28;20039;-80
2021/09/15 00:44:17;;;;;;;15.20;9.85;;;;;;;14.96;97.19;95418.63;4972510;28;20051;-79
2021/09/15 00:46:44;;;;;;;16.60;10.07;;;;;;;14.96;97.48;95415.97;4973713;28;20051;-78
2021/09/15 00:49:09;;;;;;;17.02;10.35;;;;;;;14.99;96.91;95417.25;4970095;28;20050;-79
2021/09/15 00:51:39;;;;;;;18.02;10.75;;;;;;;14.95;96.65;95422.34;4971989;28;20052;-79
2021/09/15 00:54:06;;;;;;;16.13;10.55;;;;;;;14.92;96.55;95411.56;4971670;28;20038;-79
2021/09/15 00:56:32;;;;;;;17.35;10.30;;;;;;;14.85;96.34;95406.69;4972006;28;20065;-80
2021/09/15 00:58:58;;;;;;;15.02;9.77;;;;;;;14.71;97.21;95407.50;4973077;28;20050;-80
2021/09/15 01:01:24;;;;;;;18.13;11.30;;;;;;;14.81;98.65;95416.31;4964006;28;20050;-79
2021/09/15 01:03:49;;;;;;;18.13;10.77;;;;;;;14.83;97.76;95411.50;4972702;28;20741;-79
2021/09/15 01:06:15;;;;;;;15.85;10.80;;;;;;;14.82;97.23;95408.06;4971770;28;20062;-79
2021/09/15 01:08:41;;;;;;;18.23;10.80;;;;;;;14.76;96.95;95408.47;4972475;28;20051;-79
2021/09/15 01:11:08;;;;;;;17.05;10.77;;;;;;;14.83;97.59;95419.44;4965935;28;20523;-79
2021/09/15 01:13:34;;;;;;;16.45;10.32;;;;;;;14.99;96.61;95412.72;4972931;28;20043;-79
2021/09/15 01:16:00;;;;;;;16.13;9.48;;;;;;;14.93;97.10;95421.88;4973420;28;20090;-79
2021/09/15 01:18:26;;;;;;;15.40;10.15;;;;;;;14.80;97.76;95420.06;4971863;28;20047;-79
2021/09/15 01:20:53;;;;;;;16.52;9.77;;;;;;;14.71;97.82;95418.09;4974693;28;20452;-80
2021/09/15 01:23:18;;;;;;;14.27;9.38;;;;;;;14.84;97.10;95410.41;4973068;28;20101;-79
2021/09/15 01:25:44;;;;;;;19.45;10.00;;;;;;;15.02;96.24;95422.72;4975819;28;20039;-80
2021/09/15 01:28:11;;;;;;;20.52;10.20;;;;;;;14.84;96.47;95416.50;4974203;28;20046;-80
2021/09/15 01:30:38;;;;;;;15.88;10.23;;;;;;;14.65;97.80;95416.66;4972785;28;20058;-80
2021/09/15 01:33:04;;;;;;;15.27;10.05;;;;;;;14.59;98.18;95409.84;4974598;28;20101;-80
2021/09/15 01:35:30;;;;;;;15.30;10.13;;;;;;;14.59;97.86;95404.53;4973120;28;20039;-79
2021/09/15 01:37:56;;;;;;;20.33;10.40;;;;;;;14.83;96.14;95403.56;4975427;28;20053;-79
2021/09/15 01:40:21;;;;;;;15.68;9.80;;;;;;;14.79;96.30;95400.72;4973480;28;20039;-79
2021/09/15 01:42:47;;;;;;;18.75;9.50;;;;;;;14.84;95.83;95397.16;4976000;28;20043;-79
2021/09/15 01:45:12;;;;;;;14.45;9.63;;;;;;;14.61;95.94;95397.09;4974810;28;20049;-79
2021/09/15 01:47:40;;;;;;;14.02;9.85;;;;;;;14.52;96.35;95404.16;4962436;28;20074;-79
2021/09/15 01:50:06;;;;;;;17.58;9.95;;;;;;;14.61;95.74;95397.09;4969559;28;20042;-80
2021/09/15 01:52:32;;;;;;;16.15;9.32;;;;;;;14.57;95.85;95396.13;4971766;28;20039;-79
2021/09/15 01:54:58;;;;;;;15.88;9.75;;;;;;;14.44;96.32;95391.63;4975023;28;20046;-79
2021/09/15 01:57:23;;;;;;;17.52;10.00;;;;;;;14.26;97.85;95386.16;4974924;28;20421;-79
2021/09/15 01:59:49;;;;;;;17.13;10.10;;;;;;;14.09;98.57;95391.25;4975354;28;20046;-79
2021/09/15 02:02:14;;;;;;;18.23;10.35;;;;;;;14.02;98.57;95397.75;4959965;28;20047;-80
2021/09/15 02:04:41;;;;;;;20.10;10.20;;;;;;;14.16;97.75;95386.34;4960749;28;20673;-79
2021/09/15 02:07:08;;;;;;;16.88;10.10;;;;;;;14.17;97.50;95399.28;4970327;28;20053;-80
2021/09/15 02:09:34;;;;;;;14.57;9.32;;;;;;;14.29;96.91;95390.06;4971321;28;20424;-79
2021/09/15 02:11:59;;;;;;;15.15;9.25;;;;;;;14.37;96.00;95387.50;4955623;29;20039;-80
2021/09/15 02:14:25;;;;;;;18.25;10.07;;;;;;;14.26;97.19;95396.75;4963992;28;20041;-80
2021/09/15 02:16:51;;;;;;;17.23;9.60;;;;;;;14.22;97.17;95385.16;4972716;28;20505;-80
2021/09/15 02:19:17;;;;;;;15.45;9.93;;;;;;;14.26;96.25;95396.75;4971492;28;20042;-79
2021/09/15 02:21:43;;;;;;;13.38;9.27;;;;;;;14.03;96.32;95396.63;4975017;28;20050;-80
2021/09/15 02:24:08;;;;;;;24.40;9.80;;;;;;;13.84;97.36;95395.94;4972725;28;20121;-79
2021/09/15 02:26:34;;;;;;;16.70;10.20;;;;;;;13.76;98.04;95388.69;4973597;28;20628;-79
2021/09/15 02:29:00;;;;;;;23.02;10.05;;;;;;;13.80;97.90;95384.38;4975964;28;20069;-79
2021/09/15 02:31:26;;;;;;;17.23;9.73;;;;;;;13.84;96.96;95380.09;4967560;28;20098;-79
2021/09/15 02:33:52;;;;;;;15.73;10.07;;;;;;;13.76;97.73;95370.94;4974016;28;20193;-80
2021/09/15 02:36:18;;;;;;;15.15;9.80;;;;;;;13.88;96.66;95375.78;4974941;28;20501;-79
2021/09/15 02:38:43;;;;;;;16.80;9.05;;;;;;;13.90;96.85;95378.91;4971185;28;20047;-80
2021/09/15 02:41:09;;;;;;;16.92;9.68;;;;;;;13.67;97.19;95381.44;4971181;28;20160;-79
2021/09/15 02:43:35;;;;;;;16.45;9.60;;;;;;;13.68;98.69;95377.72;4975017;28;20042;-80
2021/09/15 02:46:00;;;;;;;16.70;9.50;;;;;;;13.72;97.94;95377.94;4974686;28;20043;-79
2021/09/15 02:48:26;;;;;;;16.77;9.93;;;;;;;13.63;97.84;95375.19;4972397;28;20050;-80
2021/09/15 02:50:52;;;;;;;17.42;10.50;;;;;;;13.47;98.90;95371.97;4973622;28;20042;-80
2021/09/15 02:53:18;;;;;;;15.15;9.57;;;;;;;13.64;98.37;95370.66;4968945;28;20074;-80
2021/09/15 02:55:43;;;;;;;15.48;9.70;;;;;;;13.78;97.94;95370.69;4964069;28;20073;-80
2021/09/15 02:58:09;;;;;;;16.02;9.43;;;;;;;13.77;97.80;95369.09;4973186;28;20096;-79
2021/09/15 03:00:35;;;;;;;15.10;9.40;;;;;;;13.77;97.51;95375.16;4974182;28;20511;-80
2021/09/15 03:03:02;;;;;;;13.90;9.27;;;;;;;13.74;97.08;95378.41;4971717;28;20042;-80
2021/09/15 03:05:28;;;;;;;13.90;8.93;;;;;;;13.66;97.42;95369.28;4980154;28;20092;-79
2021/09/15 03:07:53;;;;;;;16.80;9.68;;;;;;;13.59;97.70;95374.19;4986410;28;20043;-79
2021/09/15 03:10:19;;;;;;;15.65;9.75;;;;;;;13.59;97.55;95368.91;4981116;28;20436;-79
2021/09/15 03:12:44;;;;;;;15.50;9.55;;;;;;;13.53;97.85;95375.31;4975653;28;20089;-80
2021/09/15 03:15:10;;;;;;;15.32;9.27;;;;;;;13.53;97.99;95380.63;4973543;28;20043;-80
2021/09/15 03:17:36;;;;;;;19.00;9.80;;;;;;;13.43;98.40;95383.44;4970912;28;20035;-79
2021/09/15 03:20:03;;;;;;;17.67;10.30;;;;;;;13.38;98.34;95391.47;4968040;28;20042;-79
2021/09/15 03:22:29;;;;;;;18.65;9.70;;;;;;;13.43;98.27;95396.66;4966209;28;20417;-79
2021/09/15 03:24:54;;;;;;;15.73;9.52;;;;;;;13.41;98.48;95385.59;4968708;28;20070;-78
2021/09/15 03:27:20;;;;;;;15.23;9.50;;;;;;;13.31;98.53;95387.28;4970023;28;20047;-80
2021/09/15 03:29:45;;;;;;;17.13;9.70;;;;;;;13.20;99.00;95372.66;4968428;28;20523;-79
2021/09/15 03:32:11;;;;;;;15.88;10.10;;;;;;;13.21;99.72;95374.25;4967974;28;20042;-79
2021/09/15 03:34:37;;;;;;;15.45;9.85;;;;;;;13.22;99.19;95375.06;4970130;28;20043;-80
2021/09/15 03:37:02;;;;;;;18.92;8.93;;;;;;;13.28;98.86;95377.31;4969250;28;20046;-80
2021/09/15 03:39:28;;;;;;;16.40;9.75;;;;;;;13.36;98.47;95370.63;4961713;28;20168;-80
2021/09/15 03:41:54;;;;;;;15.80;9.35;;;;;;;13.30;97.85;95377.00;4967736;28;20084;-80
2021/09/15 03:44:19;;;;;;;15.50;9.70;;;;;;;13.24;98.15;95373.66;4968651;28;20050;-81
2021/09/15 03:46:45;;;;;;;18.15;10.20;;;;;;;13.20;98.48;95372.66;4969009;28;20481;-80
2021/09/15 03:49:11;;;;;;;16.98;10.20;;;;;;;13.10;98.36;95362.25;4965215;28;20054;-80
2021/09/15 03:51:36;;;;;;;17.92;9.65;;;;;;;13.11;98.43;95353.28;4967708;28;20429;-80
2021/09/15 03:54:02;;;;;;;16.73;9.10;;;;;;;13.09;98.78;95352.78;4968696;28;20167;-80
2021/09/15 03:56:27;;;;;;;14.43;9.27;;;;;;;13.13;98.51;95351.13;4969091;28;20054;-80
2021/09/15 03:58:53;;;;;;;16.90;9.88;;;;;;;13.11;98.63;95348.00;4969805;28;20082;-80
2021/09/15 04:01:18;;;;;;;14.15;9.15;;;;;;;13.00;99.47;95342.88;4965452;28;20047;-79
2021/09/15 04:03:44;;;;;;;15.75;9.50;;;;;;;13.03;98.66;95346.00;4964772;28;20043;-80
2021/09/15 04:06:09;;;;;;;17.90;9.95;;;;;;;13.24;98.44;95347.25;4972963;28;20129;-80
2021/09/15 04:08:35;;;;;;;19.15;10.40;;;;;;;13.11;98.84;95348.00;4972049;28;20485;-80
2021/09/15 04:11:01;;;;;;;15.13;9.07;;;;;;;13.08;99.37;95345.94;4970841;28;20034;-80
2021/09/15 04:13:27;;;;;;;16.48;9.82;;;;;;;13.08;99.13;95351.22;4972778;28;20066;-80
2021/09/15 04:15:53;;;;;;;17.10;9.88;;;;;;;12.96;98.98;95344.53;4972781;28;20045;-80
2021/09/15 04:18:18;;;;;;;14.25;9.13;;;;;;;12.97;99.10;95343.47;4968618;28;20039;-80
2021/09/15 04:20:45;;;;;;;18.58;10.20;;;;;;;12.95;100.00;95340.31;4974993;28;20049;-80
2021/09/15 04:23:16;;;;;;;17.27;9.40;;;;;;;12.94;100.00;95346.69;4967917;28;20054;-80
2021/09/15 04:31:23;;;;;;;18.10;9.88;;;;;;;12.94;99.57;95349.31;4973899;28;20067;-80
2021/09/15 04:33:49;;;;;;;15.25;9.93;;;;;;;13.13;99.39;95356.41;4974055;28;20073;-81
2021/09/15 04:36:15;;;;;;;16.13;9.95;;;;;;;13.09;99.50;95355.44;4975922;28;20057;-81
2021/09/15 04:38:41;;;;;;;16.45;9.55;;;;;;;13.16;99.37;95358.50;4974777;28;20065;-80
2021/09/15 04:41:07;;;;;;;19.63;9.75;;;;;;;13.09;99.35;95350.16;4973775;28;20042;-80
2021/09/15 04:43:32;;;;;;;15.02;9.50;;;;;;;13.06;99.75;95356.78;4977251;28;20051;-80
2021/09/15 04:45:58;;;;;;;16.95;9.23;;;;;;;13.37;98.61;95363.47;4975302;28;20058;-80
2021/09/15 04:48:23;;;;;;;16.60;9.57;;;;;;;13.33;98.55;95356.09;4975621;28;20070;-79
2021/09/15 04:50:49;;;;;;;17.10;9.85;;;;;;;13.27;98.84;95357.22;4971455;28;20098;-79
2021/09/15 04:53:14;;;;;;;16.23;9.82;;;;;;;13.34;99.19;95362.16;4975272;28;20404;-80
2021/09/15 04:55:40;;;;;;;19.08;10.40;;;;;;;13.40;99.07;95360.22;4976605;28;20852;-79
2021/09/15 04:58:06;;;;;;;21.08;10.38;;;;;;;13.49;98.93;95363.78;4975560;28;20039;-79
2021/09/15 05:00:33;;;;;;;19.10;9.80;;;;;;;13.44;99.60;95361.22;4970606;28;20071;-80
2021/09/15 05:02:58;;;;;;;17.27;9.60;;;;;;;13.40;99.91;95360.22;4971941;28;20555;-79
2021/09/15 05:05:24;;;;;;;17.58;9.57;;;;;;;13.50;99.86;95360.84;4972187;28;20035;-79
2021/09/15 05:07:50;;;;;;;19.77;10.70;;;;;;;13.54;99.59;95366.31;4975480;28;20130;-79
2021/09/15 05:10:15;;;;;;;16.63;10.35;;;;;;;13.42;100.00;95352.78;4971372;28;20046;-79
2021/09/15 05:12:41;;;;;;;20.42;9.85;;;;;;;13.36;100.00;95356.59;4967909;28;20057;-80
2021/09/15 05:15:08;;;;;;;15.10;9.45;;;;;;;13.52;100.00;95355.28;4972190;28;20043;-79
2021/09/15 05:17:33;;;;;;;15.35;9.40;;;;;;;13.43;100.00;95364.94;4974059;28;20047;-80
2021/09/15 05:19:59;;;;;;;15.80;9.43;;;;;;;13.52;100.00;95363.22;4965034;28;20043;-79
2021/09/15 05:22:24;;;;;;;17.20;10.55;;;;;;;13.57;100.00;95360.47;4971264;28;20039;-79
2021/09/15 05:24:50;;;;;;;15.65;9.57;;;;;;;13.66;100.00;95364.00;4974749;28;20669;-80
2021/09/15 05:27:16;;;;;;;14.95;8.45;;;;;;;13.73;100.00;95368.13;4970877;28;20039;-81
2021/09/15 05:29:41;;;;;;;16.95;10.10;;;;;;;13.78;99.64;95360.09;4971308;28;20615;-81
2021/09/15 05:32:07;;;;;;;16.20;9.13;;;;;;;13.80;100.00;95357.94;4987308;28;20106;-80
2021/09/15 05:34:33;;;;;;;15.23;9.57;;;;;;;13.99;99.31;95366.56;4985876;28;20535;-79
2021/09/15 05:36:59;;;;;;;15.68;10.10;;;;;;;14.00;99.78;95368.13;4972573;28;20045;-81
2021/09/15 05:39:25;;;;;;;16.38;9.75;;;;;;;14.16;99.61;95365.19;4973701;28;20046;-81
2021/09/15 05:41:50;;;;;;;16.02;9.63;;;;;;;14.14;99.42;95356.78;4977498;28;20038;-80
2021/09/15 05:44:16;;;;;;;20.95;9.20;;;;;;;14.20;99.31;95355.59;4999170;28;20062;-80
2021/09/15 05:46:42;;;;;;;17.90;9.60;;;;;;;14.29;99.27;95359.09;4999516;28;20053;-79
2021/09/15 05:49:07;;;;;;;18.65;9.40;;;;;;;14.51;98.24;95358.38;4989983;28;20064;-79
2021/09/15 05:51:33;;;;;;;15.95;9.80;;;;;;;14.58;98.35;95363.25;4971154;28;20113;-80
2021/09/15 05:53:59;;;;;;;13.77;9.48;;;;;;;14.79;98.32;95363.63;4973778;28;20158;-80
2021/09/15 05:56:25;;;;;;;17.35;9.90;;;;;;;14.83;97.42;95366.47;4974413;28;20620;-81
2021/09/15 05:58:51;;;;;;;20.85;9.45;;;;;;;14.88;97.54;95369.00;4974046;28;20058;-80
2021/09/15 06:01:17;;;;;;;16.33;9.27;;;;;;;14.98;97.30;95368.75;4973729;28;20039;-81
2021/09/15 06:03:42;;;;;;;18.88;9.70;;;;;;;15.03;97.02;95375.81;4972165;28;20054;-80
2021/09/15 06:06:08;;;;;;;16.13;9.68;;;;;;;15.02;97.13;95375.03;4975965;28;20513;-81
2021/09/15 06:08:34;;;;;;;14.57;9.68;;;;;;;15.20;97.90;95375.13;4978338;28;20558;-81
2021/09/15 06:10:59;;;;;;;16.17;9.40;;;;;;;15.21;95.96;95374.06;4979404;28;20035;-80
2021/09/15 06:13:25;;;;;;;16.13;9.48;;;;;;;15.16;97.14;95382.16;4973165;28;20479;-81
2021/09/15 06:15:51;;;;;;;18.25;9.80;;;;;;;15.35;96.24;95372.13;4974365;28;20058;-80
2021/09/15 06:18:16;;;;;;;21.13;9.43;;;;;;;15.45;96.36;95375.63;4975003;28;20074;-82
2021/09/15 06:20:42;;;;;;;16.20;9.98;;;;;;;15.50;96.30;95378.13;4968781;28;20535;-80
2021/09/15 06:23:10;;;;;;;16.13;9.95;;;;;;;15.57;96.23;95383.78;4974046;28;20046;-80
2021/09/15 06:25:36;;;;;;;20.30;10.05;;;;;;;15.57;97.19;95378.47;4973747;28;20058;-80
2021/09/15 06:28:02;;;;;;;15.27;9.60;;;;;;;15.68;96.05;95374.47;4973864;28;20042;-80
2021/09/15 06:30:28;;;;;;;14.85;9.85;;;;;;;15.75;96.10;95385.44;4974552;28;20057;-80
2021/09/15 06:32:53;;;;;;;15.05;9.77;;;;;;;15.69;96.60;95386.66;4971937;28;20050;-79
2021/09/15 06:35:19;;;;;;;16.15;9.65;;;;;;;15.82;95.92;95384.28;4975608;28;20094;-80
2021/09/15 06:37:45;;;;;;;15.88;9.70;;;;;;;15.83;95.59;95385.81;4976477;28;20049;-80
2021/09/15 06:40:11;;;;;;;15.38;9.40;;;;;;;15.94;95.14;95387.13;4977093;28;20039;-79
2021/09/15 06:42:37;;;;;;;15.63;9.77;;;;;;;16.00;94.89;95385.88;4972818;28;20516;-79
2021/09/15 06:45:04;;;;;;;19.38;9.27;;;;;;;16.06;94.99;95384.69;4972576;28;20408;-80
2021/09/15 06:47:29;;;;;;;22.30;9.95;;;;;;;16.22;94.78;95381.59;4972643;28;20421;-80
2021/09/15 06:49:55;;;;;;;15.88;9.52;;;;;;;16.33;93.91;95382.88;4971986;28;20037;-81
2021/09/15 06:52:21;;;;;;;17.85;9.75;;;;;;;16.32;94.38;95380.50;4966270;28;20066;-80
2021/09/15 06:54:49;;;;;;;15.38;9.85;;;;;;;16.47;93.67;95381.97;4974060;28;20556;-81
2021/09/15 06:57:15;;;;;;;15.40;9.48;;;;;;;16.43;93.74;95382.59;4972976;28;20051;-80
2021/09/15 06:59:41;;;;;;;15.98;9.90;;;;;;;16.54;93.67;95376.97;4973760;28;20046;-80
2021/09/15 07:02:07;;;;;;;16.65;9.38;;;;;;;16.57;93.02;95376.34;4968310;28;20052;-81
2021/09/15 07:04:32;;;;;;;14.60;9.52;;;;;;;16.47;93.89;95376.66;4971288;28;20395;-80
2021/09/15 07:06:59;;;;;;;12.55;8.55;;;;;;;16.41;94.49;95368.06;4974458;28;20066;-80
2021/09/15 07:09:24;;;;;;;17.42;9.95;;;;;;;16.54;94.01;95376.97;4973644;28;20046;-81
2021/09/15 07:11:50;;;;;;;14.55;9.70;;;;;;;16.65;92.99;95388.88;4968126;28;20043;-82
2021/09/15 07:14:16;;;;;;;17.23;9.98;;;;;;;16.74;93.36;95381.69;4973968;28;20413;-82
2021/09/15 07:16:41;;;;;;;16.95;9.90;;;;;;;16.80;93.65;95383.09;4970273;28;20077;-79
2021/09/15 07:19:09;;;;;;;17.30;9.60;;;;;;;16.89;93.66;95382.34;4972624;28;20066;-79
2021/09/15 07:21:35;;;;;;;18.63;9.82;;;;;;;16.96;93.86;95393.28;4974106;28;20070;-78
2021/09/15 07:24:01;;;;;;;17.52;9.55;;;;;;;17.00;93.46;95377.50;4969574;28;20039;-77
2021/09/15 07:26:27;;;;;;;17.55;9.35;;;;;;;16.93;94.17;95389.38;4973023;28;20097;-79
2021/09/15 07:28:53;;;;;;;17.05;10.23;;;;;;;17.06;96.45;95377.03;4965007;28;20520;-78
2021/09/15 07:31:19;;;;;;;14.25;9.75;;;;;;;17.30;93.58;95381.09;4970871;28;20031;-79
2021/09/15 07:33:44;;;;;;;21.98;10.13;;;;;;;17.39;93.29;95381.84;4965150;28;20073;-77
2021/09/15 07:36:13;;;;;;;18.05;9.98;;;;;;;17.45;93.19;95388.53;4982355;28;20055;-78
2021/09/15 07:39:12;;;;;;;16.48;10.15;;;;;;;17.59;93.20;95387.59;4980260;28;20042;-79
2021/09/15 07:41:38;;;;;;;16.08;9.93;;;;;;;17.84;93.20;95383.28;4964965;28;20043;-77
2021/09/15 07:44:04;;;;;;;17.27;9.93;;;;;;;17.99;92.20;95390.00;4973065;28;20070;-77
2021/09/15 07:46:29;;;;;;;15.60;10.00;;;;;;;18.08;90.61;95390.75;4988395;28;20038;-78
2021/09/15 07:48:55;;;;;;;15.23;9.55;;;;;;;18.19;90.69;95388.50;4964056;28;20564;-77
2021/09/15 07:51:20;;;;;;;18.83;10.20;;;;;;;18.23;89.99;95399.28;4973384;28;20039;-77
2021/09/15 07:53:47;;;;;;;14.57;9.50;;;;;;;18.40;89.20;95391.22;4972295;28;20555;-78
2021/09/15 07:56:13;;;;;;;17.05;10.07;;;;;;;18.33;88.55;95398.91;4972190;28;20043;-77
2021/09/15 07:58:39;;;;;;;19.92;10.15;;;;;;;18.59;86.09;95392.66;4973918;28;20055;-80
2021/09/15 08:01:05;;;;;;;17.13;9.90;;;;;;;18.58;86.87;95396.47;4971670;28;20046;-79
2021/09/15 08:03:30;;;;;;;16.13;9.73;;;;;;;18.73;85.85;95390.53;4973952;28;20047;-79
2021/09/15 08:06:01;;;;;;;16.55;9.65;;;;;;;18.73;86.55;95395.09;4973602;28;20050;-77
2021/09/15 08:08:27;;;;;;;15.68;9.80;;;;;;;18.80;85.66;95390.78;4968712;28;20036;-77
2021/09/15 08:10:53;;;;;;;18.70;9.98;;;;;;;18.96;83.89;95387.59;4957682;28;20456;-76
2021/09/15 08:13:20;;;;;;;15.13;9.98;;;;;;;18.96;85.03;95387.59;4972285;28;20041;-77
2021/09/15 08:15:46;;;;;;;16.98;9.95;;;;;;;18.86;84.05;95378.06;4973161;28;20043;-76
2021/09/15 08:18:12;;;;;;;16.98;10.00;;;;;;;18.87;84.68;95369.75;4971448;28;20164;-77
2021/09/15 08:20:38;;;;;;;17.27;10.65;;;;;;;18.99;83.33;95360.25;4972721;28;20497;-76
2021/09/15 08:23:04;;;;;;;17.98;10.00;;;;;;;19.05;87.04;95358.97;4967900;28;20501;-77
2021/09/15 08:25:30;;;;;;;17.42;10.25;;;;;;;19.19;85.56;95358.66;4972720;28;20047;-77
2021/09/15 08:27:56;;;;;;;21.02;10.18;;;;;;;19.27;86.17;95346.38;4971615;28;20054;-77
2021/09/15 08:30:22;;;;;;;16.17;10.02;;;;;;;19.50;82.22;95358.22;4972517;28;20055;-77
2021/09/15 08:32:48;;;;;;;17.52;10.02;;;;;;;19.54;83.71;95348.44;4968941;28;20637;-78
2021/09/15 08:35:14;;;;;;;23.27;10.63;;;;;;;19.69;83.93;95348.91;4972399;28;20077;-77
2021/09/15 08:37:40;;;;;;;19.85;9.85;;;;;;;19.71;83.66;95349.34;4972043;28;20039;-77
2021/09/15 08:40:09;;;;;;;17.63;10.20;;;;;;;19.70;82.83;95345.16;4969560;28;20045;-77
2021/09/15 08:42:35;;;;;;;19.80;9.85;;;;;;;19.77;84.19;95350.72;4971470;28;20041;-77
2021/09/15 08:45:06;;;;;;;19.27;9.48;;;;;;;19.89;83.32;95342.72;4971973;28;20113;-77
2021/09/15 08:47:36;;;;;;;15.90;10.65;;;;;;;19.92;83.85;95345.84;4972624;28;20052;-77
2021/09/15 08:50:01;;;;;;;17.15;9.77;;;;;;;19.96;83.01;95336.84;4955287;28;20047;-77
2021/09/15 08:52:27;;;;;;;23.02;10.73;;;;;;;20.01;80.86;95344.66;4953432;28;20043;-76
2021/09/15 08:54:54;;;;;;;15.70;9.85;;;;;;;20.14;80.39;95348.09;4953085;28;20680;-77
2021/09/15 08:57:20;;;;;;;19.23;10.10;;;;;;;20.15;80.89;95346.97;4953336;28;20505;-77
2021/09/15 08:59:45;;;;;;;17.58;9.98;;;;;;;20.28;81.01;95352.31;4958410;28;20069;-76
2021/09/15 09:02:12;;;;;;;16.23;9.18;;;;;;;20.35;80.54;95341.84;4971516;28;20755;-76
2021/09/15 09:04:58;;;;;;;15.38;9.18;;;;;;;20.40;80.47;95342.38;4972749;28;20580;-77
2021/09/15 09:07:25;;;;;;;16.52;9.65;;;;;;;20.60;77.50;95340.69;4972366;28;20042;-77
2021/09/15 09:09:56;;;;;;;16.23;10.25;;;;;;;20.49;77.50;95339.59;4966361;28;20066;-77
2021/09/15 09:12:27;;;;;;;15.60;9.68;;;;;;;20.45;78.87;95352.06;4972794;28;20109;-77
2021/09/15 09:15:15;;;;;;;18.65;9.65;;;;;;;20.58;77.76;95345.56;4972296;28;20074;-76
2021/09/15 09:17:42;;;;;;;16.48;10.00;;;;;;;20.36;80.81;95343.41;4972398;28;20688;-76
2021/09/15 09:20:23;;;;;;;16.20;9.77;;;;;;;20.53;79.11;95340.47;4958894;28;20877;-75
2021/09/15 09:23:29;;;;;;;15.45;9.55;;;;;;;20.65;78.03;95354.94;4967240;28;20097;-76
2021/09/15 09:25:58;;;;;;;19.30;10.27;;;;;;;20.65;76.40;95354.94;4964384;28;20118;-77
2021/09/15 09:28:33;;;;;;;17.70;9.43;;;;;;;20.67;77.32;95352.72;4971885;28;20125;-76
2021/09/15 09:31:01;;;;;;;15.43;10.00;;;;;;;20.71;76.94;95353.59;4970634;28;20043;-76
2021/09/15 09:33:28;;;;;;;15.75;10.20;;;;;;;20.57;78.20;95346.72;4964904;28;20050;-76
2021/09/15 09:35:59;;;;;;;17.85;9.85;;;;;;;20.70;78.30;95352.03;4970748;28;20179;-76
2021/09/15 09:38:34;;;;;;;13.55;9.57;;;;;;;20.67;76.73;95352.72;4969196;28;20038;-76
2021/09/15 09:41:16;;;;;;;14.95;9.45;;;;;;;20.75;76.31;95362.50;4966150;28;20409;-76
2021/09/15 09:43:52;;;;;;;12.93;9.15;;;;;;;20.62;77.21;95366.31;4971246;28;20043;-76
2021/09/15 09:46:29;;;;;;;14.30;9.32;;;;;;;20.78;77.24;95369.84;4971108;28;20047;-77
2021/09/15 09:48:56;;;;;;;13.85;9.32;;;;;;;20.74;77.55;95371.63;4967487;28;20043;-76
2021/09/15 09:51:29;;;;;;;15.40;9.73;;;;;;;20.66;78.65;95377.84;4962131;28;20047;-77
2021/09/15 09:54:25;;;;;;;14.68;9.48;;;;;;;20.75;77.59;95381.22;4958630;28;20040;-77
2021/09/15 09:56:55;;;;;;;14.50;9.40;;;;;;;21.09;78.05;95373.78;4950633;28;20968;-76
2021/09/15 09:59:25;;;;;;;15.70;10.35;;;;;;;21.26;75.16;95381.50;4963250;28;20047;-76
2021/09/15 10:01:56;;;;;;;14.82;9.70;;;;;;;21.39;73.12;95370.75;4960840;28;20122;-77
2021/09/15 10:04:22;;;;;;;17.05;10.25;;;;;;;21.56;71.84;95375.03;4968809;28;20582;-76
2021/09/15 10:06:48;;;;;;;18.73;10.00;;;;;;;21.77;72.19;95374.81;4971729;28;20583;-76
2021/09/15 10:09:14;;;;;;;15.25;10.45;;;;;;;21.57;71.61;95372.00;4970462;28;20149;-77
2021/09/15 10:11:41;;;;;;;15.88;10.30;;;;;;;21.97;70.54;95378.38;4968303;28;20038;-76
2021/09/15 10:14:09;;;;;;;19.13;9.70;;;;;;;21.90;70.92;95384.31;4970936;28;20057;-77
2021/09/15 10:16:42;;;;;;;18.35;10.13;;;;;;;21.87;69.75;95378.88;4969781;28;20047;-76
2021/09/15 10:19:11;;;;;;;17.30;9.73;;;;;;;22.18;71.21;95388.78;4968887;28;20171;-77
2021/09/15 10:21:37;;;;;;;17.70;10.63;;;;;;;22.05;69.33;95379.31;4970284;28;20085;-76
2021/09/15 10:24:04;;;;;;;18.40;10.27;;;;;;;21.95;69.39;95381.38;4970211;28;20066;-76
2021/09/15 10:26:33;;;;;;;15.32;10.38;;;;;;;21.94;70.35;95385.19;4971367;28;20042;-77
2021/09/15 10:29:17;;;;;;;16.02;10.25;;;;;;;22.17;69.22;95397.97;4971448;28;20043;-76
2021/09/15 10:31:51;;;;;;;15.27;10.23;;;;;;;22.27;70.43;95386.72;4968938;28;20200;-77
2021/09/15 10:34:44;;;;;;;19.98;11.10;;;;;;;22.23;69.14;95385.88;4968679;28;20059;-77
2021/09/15 10:37:12;;;;;;;28.58;11.88;;;;;;;21.77;70.86;95390.88;4966406;28;20130;-75
2021/09/15 10:39:58;;;;;;;15.25;10.68;;;;;;;21.88;70.81;95386.56;4968679;28;20863;-77
2021/09/15 10:42:37;;;;;;;19.20;11.80;;;;;;;21.91;70.59;95385.88;4971129;28;20039;-76
2021/09/15 10:45:08;;;;;;;18.98;11.15;;;;;;;22.08;70.62;95384.75;4970981;28;20069;-77
2021/09/15 10:47:39;;;;;;;21.48;11.45;;;;;;;22.16;72.18;95380.34;4966109;28;20176;-77
2021/09/15 10:50:06;;;;;;;30.58;12.65;;;;;;;22.12;71.07;95380.28;4969050;28;20047;-75
2021/09/15 10:52:37;;;;;;;20.15;12.07;;;;;;;22.22;69.56;95386.97;4967977;28;20043;-77
2021/09/15 10:55:15;;;;;;;18.98;12.13;;;;;;;22.06;69.96;95378.19;4961727;28;20043;-76
2021/09/15 10:57:43;;;;;;;25.25;12.52;;;;;;;22.02;69.34;95374.63;4969919;28;20042;-76
2021/09/15 11:00:15;;;;;;;21.23;12.25;;;;;;;22.00;70.35;95371.53;4965161;28;20497;-76
2021/09/15 11:02:42;;;;;;;22.65;13.45;;;;;;;22.10;70.59;95360.28;4965036;28;20042;-77
2021/09/15 11:05:26;;;;;;;22.75;12.57;;;;;;;22.00;69.90;95361.59;4959099;28;20055;-76
2021/09/15 11:07:53;;;;;;;24.67;14.32;;;;;;;21.84;70.31;95356.25;4966312;28;20678;-76
2021/09/15 11:10:34;;;;;;;22.45;12.40;;;;;;;21.84;69.85;95364.28;4961133;28;20058;-75
2021/09/15 11:13:07;;;;;;;18.83;12.52;;;;;;;21.92;70.27;95366.00;4950316;28;20050;-75
2021/09/15 11:15:43;;;;;;;22.23;12.67;;;;;;;22.27;71.29;95375.25;4956300;28;20127;-74
2021/09/15 11:18:27;;;;;;;22.95;12.32;;;;;;;22.16;69.33;95374.97;4965569;28;20050;-75
2021/09/15 11:20:55;;;;;;;26.05;11.43;;;;;;;22.10;69.78;95376.38;4959984;28;20139;-76
2021/09/15 11:23:24;;;;;;;19.85;12.32;;;;;;;22.34;69.82;95382.69;4958120;28;20054;-76
2021/09/15 11:25:50;;;;;;;20.58;11.82;;;;;;;22.46;68.97;95377.22;4956421;28;20072;-76
2021/09/15 11:28:17;;;;;;;19.35;11.77;;;;;;;22.40;69.16;95378.63;4962486;28;20051;-76